Time;durP1;ratioP1;P1;durP2;ratioP2;P2;SDS_P1;SDS_P2;PMS_P1;PMS_P2;Temp;Humidity;BMP_temperature;BMP_pressure;BME280_temperature;BME280_humidity;BME280_pressure;Samples;Min_cycle;Max_cycle;Signal;HPM_P1;HPM_P2
2022/09/26 09:58:00;;;;;;;;;;;17.20;81.10;;;;;;6107726;23;19940;-74
2022/09/26 10:00:27;;;;;;;;;;;17.20;81.10;;;;;;6093056;23;19932;-75
2022/09/26 10:03:06;;;;;;;;;;;17.20;81.20;;;;;;6066727;23;19980;-76
2022/09/26 10:05:33;;;;;;;;;;;17.20;81.20;;;;;;6066622;23;19952;-74
2022/09/26 10:08:00;;;;;;;;;;;17.20;81.30;;;;;;6091753;23;19999;-73
2022/09/26 10:10:40;;;;;;;;;;;17.20;81.40;;;;;;6091745;23;19932;-77
2022/09/26 10:13:09;;;;;;;;;;;17.20;81.50;;;;;;6067120;23;19958;-78
2022/09/26 10:15:40;;;;;;;;;;;17.20;81.60;;;;;;6092497;23;19987;-76
2022/09/26 10:18:10;;;;;;;;;;;17.20;81.60;;;;;;6066317;23;19913;-74
2022/09/26 10:20:39;;;;;;;;;;;17.20;81.60;;;;;;6067384;23;19987;-76
2022/09/26 10:23:12;;;;;;;;;;;17.20;81.50;;;;;;6043243;23;19956;-75
2022/09/26 10:25:38;;;;;;;;;;;17.20;81.50;;;;;;6067554;23;19951;-77
2022/09/26 10:28:05;;;;;;;;;;;17.20;81.70;;;;;;6066024;23;19905;-80
2022/09/26 10:30:33;;;;;;;;;;;17.20;81.80;;;;;;6067141;23;20249;-74
2022/09/26 10:33:00;;;;;;;;;;;17.20;81.80;;;;;;6070385;23;20395;-76
2022/09/26 10:35:28;;;;;;;;;;;17.20;81.80;;;;;;6095135;23;19953;-75
2022/09/26 10:37:55;;;;;;;;;;;17.20;81.80;;;;;;6046277;23;19909;-75
2022/09/26 10:43:19;;;;;;;;;;;17.20;81.90;;;;;;6097034;23;19908;-75
2022/09/26 10:45:52;;;;;;;;;;;17.20;82.00;;;;;;6097293;23;20237;-74
2022/09/26 10:48:20;;;;;;;;;;;17.20;82.00;;;;;;6096421;23;20326;-75
2022/09/26 10:50:48;;;;;;;;;;;17.10;82.10;;;;;;6071654;23;20352;-75
2022/09/26 10:53:16;;;;;;;;;;;17.20;82.20;;;;;;6071744;23;19901;-78
2022/09/26 10:55:42;;;;;;;;;;;17.10;82.20;;;;;;6047748;23;20313;-78
2022/09/26 10:58:13;;;;;;;;;;;17.10;82.30;;;;;;6108333;23;19913;-78
2022/09/26 11:00:41;;;;;;;;;;;17.10;82.30;;;;;;6076564;23;19901;-77
2022/09/26 11:03:08;;;;;;;;;;;17.10;82.60;;;;;;6126018;23;19929;-78
2022/09/26 11:08:20;;;;;;;;;;;17.10;82.80;;;;;;6103695;23;19924;-78
2022/09/26 11:10:47;;;;;;;;;;;17.10;82.90;;;;;;6100622;23;19908;-78
2022/09/26 11:13:18;;;;;;;;;;;17.10;82.80;;;;;;6101000;23;20298;-78
2022/09/26 11:16:00;;;;;;;;;;;17.00;83.00;;;;;;6126278;23;19908;-78
2022/09/26 11:18:35;;;;;;;;;;;17.00;83.10;;;;;;6125217;23;19939;-78
2022/09/26 11:21:07;;;;;;;;;;;17.00;83.20;;;;;;6100306;23;19908;-78
2022/09/26 11:23:40;;;;;;;;;;;17.00;83.30;;;;;;6100632;23;19901;-78
2022/09/26 11:26:17;;;;;;;;;;;17.00;83.20;;;;;;6100099;23;20309;-78
2022/09/26 11:28:49;;;;;;;;;;;17.10;83.30;;;;;;6125718;23;19924;-78
2022/09/26 11:31:25;;;;;;;;;;;17.00;83.30;;;;;;6126314;23;19901;-77
2022/09/26 11:33:53;;;;;;;;;;;17.00;83.40;;;;;;6100023;23;19904;-77
2022/09/26 11:36:24;;;;;;;;;;;17.00;83.50;;;;;;6125845;23;19913;-78
2022/09/26 11:38:55;;;;;;;;;;;17.00;83.50;;;;;;6100742;23;20291;-78
2022/09/26 11:41:44;;;;;;;;;;;17.00;83.70;;;;;;6099970;23;20376;-77
2022/09/26 11:44:29;;;;;;;;;;;17.00;83.70;;;;;;6110567;23;19905;-77
2022/09/26 11:46:58;;;;;;;;;;;17.00;83.70;;;;;;6126248;23;19940;-77
2022/09/26 11:49:37;;;;;;;;;;;17.00;83.70;;;;;;6126116;23;19978;-77
2022/09/26 11:52:13;;;;;;;;;;;17.00;83.70;;;;;;6099148;23;19901;-81
2022/09/26 11:54:39;;;;;;;;;;;17.00;83.80;;;;;;6125870;23;19901;-75
2022/09/26 11:57:10;;;;;;;;;;;17.00;83.90;;;;;;6126028;23;19979;-75
2022/09/26 11:59:56;;;;;;;;;;;17.00;84.00;;;;;;6099285;23;19959;-76
2022/09/26 12:02:38;;;;;;;;;;;17.00;84.00;;;;;;6125755;23;19905;-76
2022/09/26 12:05:23;;;;;;;;;;;16.90;84.10;;;;;;6126160;23;19911;-76
2022/09/26 12:07:50;;;;;;;;;;;16.90;84.10;;;;;;6125096;23;19943;-75
2022/09/26 12:10:26;;;;;;;;;;;17.00;84.20;;;;;;6125576;23;19908;-76
2022/09/26 12:13:18;;;;;;;;;;;17.00;84.20;;;;;;6100001;23;19987;-76
2022/09/26 12:15:54;;;;;;;;;;;17.00;84.30;;;;;;6119605;23;19901;-76
2022/09/26 12:18:33;;;;;;;;;;;17.00;84.50;;;;;;6101089;23;19909;-75
2022/09/26 12:21:09;;;;;;;;;;;16.90;84.50;;;;;;6100394;23;19928;-76
2022/09/26 12:23:37;;;;;;;;;;;16.90;84.50;;;;;;6125558;23;19909;-75
2022/09/26 12:26:07;;;;;;;;;;;16.90;84.60;;;;;;6125778;23;19907;-75
2022/09/26 12:28:37;;;;;;;;;;;17.00;84.70;;;;;;6125965;23;20284;-76
2022/09/26 12:31:04;;;;;;;;;;;16.90;84.60;;;;;;6126314;23;19905;-75
2022/09/26 12:33:36;;;;;;;;;;;17.00;84.70;;;;;;6125094;23;20333;-75
2022/09/26 12:36:17;;;;;;;;;;;16.90;84.70;;;;;;6100173;23;19983;-75
2022/09/26 12:38:56;;;;;;;;;;;16.90;84.80;;;;;;6100347;23;19976;-76
2022/09/26 12:41:41;;;;;;;;;;;16.90;85.00;;;;;;6124927;23;19972;-75
2022/09/26 12:44:30;;;;;;;;;;;16.90;85.00;;;;;;6125603;23;19908;-75
2022/09/26 12:47:05;;;;;;;;;;;16.90;85.00;;;;;;6100079;23;19908;-75
2022/09/26 12:49:43;;;;;;;;;;;16.90;85.10;;;;;;6125163;23;20248;-75
2022/09/26 12:52:28;;;;;;;;;;;16.90;85.20;;;;;;6100382;23;19948;-75
2022/09/26 12:54:58;;;;;;;;;;;16.90;85.20;;;;;;6125349;23;20110;-75
2022/09/26 12:57:43;;;;;;;;;;;16.90;85.20;;;;;;6098618;23;19940;-75
2022/09/26 13:00:15;;;;;;;;;;;16.90;85.20;;;;;;6099341;23;19909;-75
2022/09/26 13:02:49;;;;;;;;;;;16.90;85.30;;;;;;6125305;23;20317;-75
2022/09/26 13:05:35;;;;;;;;;;;16.80;85.40;;;;;;6099492;23;19963;-74
2022/09/26 13:08:04;;;;;;;;;;;16.80;85.50;;;;;;6123845;23;19905;-74
2022/09/26 13:10:34;;;;;;;;;;;16.80;85.60;;;;;;6099512;23;19905;-74
2022/09/26 13:13:21;;;;;;;;;;;16.80;85.80;;;;;;6124864;23;19904;-75
2022/09/26 13:15:54;;;;;;;;;;;16.80;85.80;;;;;;6124946;23;19940;-75
2022/09/26 13:18:25;;;;;;;;;;;16.80;85.90;;;;;;6099293;23;20229;-74
2022/09/26 13:20:54;;;;;;;;;;;16.80;86.00;;;;;;6099239;23;19901;-75
2022/09/26 13:23:27;;;;;;;;;;;16.80;86.00;;;;;;6124726;23;19983;-74
2022/09/26 13:25:54;;;;;;;;;;;16.70;86.10;;;;;;6125509;23;19980;-75
2022/09/26 13:28:25;;;;;;;;;;;16.70;86.20;;;;;;6124656;23;19950;-76
2022/09/26 13:31:17;;;;;;;;;;;16.70;86.20;;;;;;6124944;23;19975;-75
2022/09/26 13:33:53;;;;;;;;;;;16.60;86.30;;;;;;6125255;23;19901;-75
2022/09/26 13:36:20;;;;;;;;;;;16.50;86.60;;;;;;6124401;23;19927;-74
2022/09/26 13:39:11;;;;;;;;;;;16.50;86.70;;;;;;6098479;23;19909;-75
2022/09/26 13:41:53;;;;;;;;;;;16.50;86.70;;;;;;6071588;23;20225;-75
2022/09/26 13:44:27;;;;;;;;;;;16.50;86.80;;;;;;6099611;23;19901;-74
2022/09/26 13:46:54;;;;;;;;;;;16.50;86.90;;;;;;6124874;23;19939;-75
2022/09/26 13:49:32;;;;;;;;;;;16.40;87.00;;;;;;6124592;23;19949;-74
2022/09/26 13:52:11;;;;;;;;;;;16.30;87.00;;;;;;6124817;23;19901;-75
2022/09/26 13:54:42;;;;;;;;;;;16.40;87.10;;;;;;6124675;23;19991;-74
2022/09/26 13:57:30;;;;;;;;;;;16.30;87.30;;;;;;6098673;23;20244;-75
2022/09/26 13:59:57;;;;;;;;;;;16.40;87.30;;;;;;6124936;23;19913;-75
2022/09/26 14:02:27;;;;;;;;;;;16.30;87.30;;;;;;6124375;23;19908;-75
2022/09/26 14:05:12;;;;;;;;;;;16.30;87.50;;;;;;6099532;23;19901;-75
2022/09/26 14:10:27;;;;;;;;;;;16.30;87.60;;;;;;6124549;23;20240;-75
2022/09/26 14:13:09;;;;;;;;;;;16.30;87.60;;;;;;6124674;23;19954;-75
2022/09/26 14:15:48;;;;;;;;;;;16.20;87.60;;;;;;6125187;23;20241;-75
2022/09/26 14:18:33;;;;;;;;;;;16.20;87.80;;;;;;6126101;23;19920;-75
2022/09/26 14:21:05;;;;;;;;;;;16.20;87.80;;;;;;6127128;23;19971;-75
2022/09/26 14:23:36;;;;;;;;;;;16.20;87.90;;;;;;6101218;23;20499;-75
2022/09/26 14:26:15;;;;;;;;;;;16.20;87.90;;;;;;6126130;23;19923;-75
2022/09/26 14:28:46;;;;;;;;;;;16.10;87.90;;;;;;6126040;23;19907;-75
2022/09/26 14:31:21;;;;;;;;;;;16.00;88.10;;;;;;6126901;23;20313;-75
2022/09/26 14:33:47;;;;;;;;;;;16.00;88.20;;;;;;6100974;23;19901;-75
2022/09/26 14:36:23;;;;;;;;;;;16.00;88.30;;;;;;6100407;23;19901;-75
2022/09/26 14:38:50;;;;;;;;;;;16.00;88.30;;;;;;6101100;23;19988;-75
2022/09/26 14:41:17;;;;;;;;;;;16.00;88.20;;;;;;6125864;23;19901;-75
2022/09/26 14:43:43;;;;;;;;;;;15.90;88.20;;;;;;6100703;23;19901;-75
2022/09/26 14:46:17;;;;;;;;;;;16.00;88.30;;;;;;6101045;23;19907;-75
2022/09/26 14:48:44;;;;;;;;;;;15.90;88.30;;;;;;6126433;23;19907;-75
2022/09/26 14:51:14;;;;;;;;;;;15.90;88.30;;;;;;6126437;23;20244;-75
2022/09/26 14:53:42;;;;;;;;;;;15.90;88.30;;;;;;6126981;23;19901;-74
2022/09/26 14:56:10;;;;;;;;;;;15.90;88.40;;;;;;6126100;23;19900;-75
2022/09/26 14:58:37;;;;;;;;;;;15.90;88.40;;;;;;6100467;23;19913;-74
2022/09/26 15:01:04;;;;;;;;;;;15.90;88.50;;;;;;6126763;23;19924;-75
2022/09/26 15:03:31;;;;;;;;;;;15.80;88.50;;;;;;6126380;23;19955;-75
2022/09/26 15:05:58;;;;;;;;;;;15.80;88.50;;;;;;6076521;23;19905;-75
2022/09/26 15:08:28;;;;;;;;;;;15.80;88.60;;;;;;6100985;23;19908;-75
2022/09/26 15:10:55;;;;;;;;;;;15.80;88.50;;;;;;6100280;23;19916;-75
2022/09/26 15:13:22;;;;;;;;;;;15.80;88.50;;;;;;6100266;23;19987;-75
2022/09/26 15:16:08;;;;;;;;;;;15.70;88.60;;;;;;6126299;23;20005;-75
2022/09/26 15:18:38;;;;;;;;;;;15.70;88.80;;;;;;6126062;23;19912;-75
2022/09/26 15:21:09;;;;;;;;;;;15.70;88.70;;;;;;6100527;23;19939;-75
2022/09/26 15:23:44;;;;;;;;;;;15.70;88.70;;;;;;6100684;23;19912;-75
2022/09/26 15:26:10;;;;;;;;;;;15.70;88.70;;;;;;6125653;23;19901;-75
2022/09/26 15:28:37;;;;;;;;;;;15.70;88.80;;;;;;6126233;23;19904;-75
2022/09/26 15:31:23;;;;;;;;;;;15.60;88.80;;;;;;6125885;23;19929;-75
2022/09/26 15:33:50;;;;;;;;;;;15.60;89.00;;;;;;6099888;23;20325;-75
2022/09/26 15:36:17;;;;;;;;;;;15.60;89.10;;;;;;6126035;23;20448;-75
2022/09/26 15:38:44;;;;;;;;;;;15.60;89.20;;;;;;6099991;23;20014;-76
2022/09/26 15:41:14;;;;;;;;;;;15.60;89.30;;;;;;6125718;23;19901;-75
2022/09/26 15:43:41;;;;;;;;;;;15.60;89.40;;;;;;6126708;23;19959;-75
2022/09/26 15:46:28;;;;;;;;;;;15.60;89.30;;;;;;6126049;23;20035;-75
2022/09/26 15:48:56;;;;;;;;;;;15.50;89.40;;;;;;6125689;23;20313;-75
2022/09/26 15:51:42;;;;;;;;;;;15.50;89.40;;;;;;6125965;23;19901;-76
2022/09/26 15:54:10;;;;;;;;;;;15.60;89.50;;;;;;6124784;23;19909;-76
2022/09/26 15:56:37;;;;;;;;;;;15.60;89.60;;;;;;6099837;23;20281;-75
2022/09/26 15:59:11;;;;;;;;;;;15.50;89.30;;;;;;6126005;23;20293;-75
2022/09/26 16:01:41;;;;;;;;;;;15.50;89.30;;;;;;6099940;23;19951;-76
2022/09/26 16:04:15;;;;;;;;;;;15.40;89.50;;;;;;6125171;23;19924;-75
2022/09/26 16:06:42;;;;;;;;;;;15.40;89.70;;;;;;6125669;23;19963;-73
2022/09/26 16:09:18;;;;;;;;;;;15.40;89.60;;;;;;6075593;23;20244;-73
2022/09/26 16:11:47;;;;;;;;;;;15.30;89.70;;;;;;6125336;23;20372;-74
2022/09/26 16:14:22;;;;;;;;;;;15.30;89.50;;;;;;6099988;23;20384;-76
2022/09/26 16:16:48;;;;;;;;;;;15.30;89.60;;;;;;6099821;23;19908;-73
2022/09/26 16:19:26;;;;;;;;;;;15.30;89.80;;;;;;6099648;23;19911;-74
2022/09/26 16:21:54;;;;;;;;;;;15.30;89.70;;;;;;6100145;23;19905;-74
2022/09/26 16:24:27;;;;;;;;;;;15.30;89.80;;;;;;6125394;23;19948;-74
2022/09/26 16:26:54;;;;;;;;;;;15.30;89.90;;;;;;6099398;23;20306;-73
2022/09/26 16:29:31;;;;;;;;;;;15.30;90.20;;;;;;6125820;23;20028;-73
2022/09/26 16:31:58;;;;;;;;;;;15.30;90.20;;;;;;6125081;23;19905;-74
2022/09/26 16:34:28;;;;;;;;;;;15.30;90.30;;;;;;6100045;23;20319;-73
2022/09/26 16:36:55;;;;;;;;;;;15.30;90.30;;;;;;6125987;23;19916;-73
2022/09/26 16:39:22;;;;;;;;;;;15.30;90.30;;;;;;6124909;23;20372;-74
2022/09/26 16:41:53;;;;;;;;;;;15.30;90.40;;;;;;6099148;23;19905;-73
2022/09/26 16:44:20;;;;;;;;;;;15.20;90.40;;;;;;6100143;23;19908;-76
2022/09/26 16:46:49;;;;;;;;;;;15.30;90.40;;;;;;6125819;23;19924;-75
2022/09/26 16:49:29;;;;;;;;;;;15.30;90.40;;;;;;6099710;23;19901;-76
2022/09/26 16:52:14;;;;;;;;;;;15.30;90.40;;;;;;6125683;23;19907;-74
2022/09/26 16:54:41;;;;;;;;;;;15.30;90.20;;;;;;6125047;23;19905;-74
2022/09/26 16:57:09;;;;;;;;;;;15.30;90.10;;;;;;6124856;23;20399;-74
2022/09/26 16:59:35;;;;;;;;;;;15.20;90.30;;;;;;6099540;23;20022;-73
2022/09/26 17:02:02;;;;;;;;;;;15.20;90.40;;;;;;6125453;23;19908;-74
2022/09/26 17:04:33;;;;;;;;;;;15.20;90.40;;;;;;6098022;23;20236;-73
2022/09/26 17:07:00;;;;;;;;;;;15.20;90.40;;;;;;6098749;23;19936;-73
2022/09/26 17:09:28;;;;;;;;;;;15.10;90.30;;;;;;6124360;23;19933;-74
2022/09/26 17:12:01;;;;;;;;;;;15.20;90.60;;;;;;6100065;23;19951;-74
2022/09/26 17:14:33;;;;;;;;;;;15.20;90.80;;;;;;6099641;23;19907;-74
2022/09/26 17:17:00;;;;;;;;;;;15.20;90.70;;;;;;6075521;23;19909;-74
2022/09/26 17:19:28;;;;;;;;;;;15.20;90.60;;;;;;6099897;23;19929;-74
2022/09/26 17:21:55;;;;;;;;;;;15.20;90.50;;;;;;6075167;23;19940;-73
2022/09/26 17:24:22;;;;;;;;;;;15.20;90.60;;;;;;6124580;23;19961;-74
2022/09/26 17:26:55;;;;;;;;;;;15.20;90.70;;;;;;6099985;23;19907;-74
2022/09/26 17:29:32;;;;;;;;;;;15.10;90.60;;;;;;6124957;23;20313;-74
2022/09/26 17:31:58;;;;;;;;;;;15.00;90.30;;;;;;6124684;23;19904;-73
2022/09/26 17:34:25;;;;;;;;;;;15.00;90.40;;;;;;6099212;23;19909;-74
2022/09/26 17:36:52;;;;;;;;;;;14.90;90.40;;;;;;6124833;23;19920;-74
2022/09/26 17:39:24;;;;;;;;;;;14.90;90.50;;;;;;6099289;23;20285;-74
2022/09/26 17:41:56;;;;;;;;;;;14.80;90.40;;;;;;6125466;23;19904;-73
2022/09/26 17:44:22;;;;;;;;;;;14.80;90.60;;;;;;6124920;23;19901;-76
2022/09/26 17:46:50;;;;;;;;;;;14.90;90.80;;;;;;6125037;23;20220;-76
2022/09/26 17:49:24;;;;;;;;;;;14.90;91.00;;;;;;6099237;23;19908;-76
2022/09/26 17:51:52;;;;;;;;;;;14.90;91.10;;;;;;6098629;23;19901;-76
2022/09/26 17:54:19;;;;;;;;;;;14.90;91.10;;;;;;6099250;23;19901;-75
2022/09/26 17:56:47;;;;;;;;;;;14.90;91.00;;;;;;6099016;23;19905;-76
2022/09/26 17:59:22;;;;;;;;;;;14.90;91.10;;;;;;6124454;23;19912;-76
2022/09/26 18:02:08;;;;;;;;;;;14.80;91.10;;;;;;6125514;23;19976;-76
2022/09/26 18:04:35;;;;;;;;;;;14.80;90.90;;;;;;6065873;23;19904;-76
2022/09/26 18:07:03;;;;;;;;;;;14.80;91.10;;;;;;6098658;23;19908;-76
2022/09/26 18:09:31;;;;;;;;;;;14.80;91.20;;;;;;6124213;23;19907;-76
2022/09/26 18:12:01;;;;;;;;;;;14.80;91.30;;;;;;6098993;23;19976;-75
2022/09/26 18:14:31;;;;;;;;;;;14.80;91.40;;;;;;6099009;23;19901;-76
2022/09/26 18:16:58;;;;;;;;;;;14.80;91.60;;;;;;6098518;23;19913;-76
2022/09/26 18:19:25;;;;;;;;;;;14.80;91.60;;;;;;6124961;23;19912;-76
2022/09/26 18:21:53;;;;;;;;;;;14.80;91.60;;;;;;6123994;23;19900;-76
2022/09/26 18:24:20;;;;;;;;;;;14.80;91.80;;;;;;6098263;23;20284;-76
2022/09/26 18:26:47;;;;;;;;;;;14.80;91.60;;;;;;6124959;23;19905;-76
2022/09/26 18:29:20;;;;;;;;;;;14.80;91.40;;;;;;6098810;23;20317;-75
2022/09/26 18:31:47;;;;;;;;;;;14.80;91.40;;;;;;6098505;23;19916;-75
2022/09/26 18:34:19;;;;;;;;;;;14.80;91.50;;;;;;6098803;23;19993;-76
2022/09/26 18:36:47;;;;;;;;;;;14.80;91.60;;;;;;6099506;23;20240;-76
2022/09/26 18:39:14;;;;;;;;;;;14.80;91.50;;;;;;6099570;23;19901;-76
2022/09/26 18:41:40;;;;;;;;;;;14.80;91.60;;;;;;6124425;23;19900;-75
2022/09/26 18:44:09;;;;;;;;;;;14.80;91.70;;;;;;6124584;23;19905;-76
2022/09/26 18:46:36;;;;;;;;;;;14.80;91.80;;;;;;6099185;23;19959;-76
2022/09/26 18:49:05;;;;;;;;;;;14.80;91.90;;;;;;6124233;23;19948;-75
2022/09/26 18:51:31;;;;;;;;;;;14.90;91.90;;;;;;6124478;23;19900;-76
2022/09/26 18:54:00;;;;;;;;;;;14.90;92.00;;;;;;6124044;23;19908;-76
2022/09/26 18:59:12;;;;;;;;;;;14.90;91.90;;;;;;6124110;23;20295;-76
2022/09/26 19:01:39;;;;;;;;;;;14.90;91.90;;;;;;6124812;23;19908;-75
2022/09/26 19:04:06;;;;;;;;;;;14.90;92.10;;;;;;6126236;23;19948;-76
2022/09/26 19:06:37;;;;;;;;;;;15.00;92.00;;;;;;6100775;23;19908;-76
2022/09/26 19:09:04;;;;;;;;;;;14.90;92.00;;;;;;6100329;23;19901;-73
2022/09/26 19:11:33;;;;;;;;;;;14.90;92.00;;;;;;6101242;23;19956;-72
2022/09/26 19:14:00;;;;;;;;;;;14.90;91.90;;;;;;6126881;23;19948;-72
2022/09/26 19:16:27;;;;;;;;;;;14.90;92.00;;;;;;6126960;23;19936;-72
2022/09/26 19:18:54;;;;;;;;;;;14.90;91.90;;;;;;6127350;23;19901;-72
2022/09/26 19:21:23;;;;;;;;;;;14.90;92.00;;;;;;6126031;23;19916;-72
2022/09/26 19:23:50;;;;;;;;;;;14.90;92.00;;;;;;6127045;23;19932;-72
2022/09/26 19:26:19;;;;;;;;;;;14.90;92.00;;;;;;6100849;23;19905;-73
2022/09/26 19:28:46;;;;;;;;;;;14.90;91.90;;;;;;6100889;23;19952;-73
2022/09/26 19:31:12;;;;;;;;;;;14.90;91.90;;;;;;6126337;23;19943;-73
2022/09/26 19:33:39;;;;;;;;;;;14.90;92.00;;;;;;6126471;23;19904;-73
2022/09/26 19:36:05;;;;;;;;;;;14.90;92.00;;;;;;6126318;23;19960;-73
2022/09/26 19:38:32;;;;;;;;;;;14.90;92.00;;;;;;6124466;23;19915;-73
2022/09/26 19:40:59;;;;;;;;;;;15.00;92.10;;;;;;6126934;23;20323;-73
2022/09/26 19:43:25;;;;;;;;;;;15.00;92.10;;;;;;6126356;23;20320;-73
2022/09/26 19:45:52;;;;;;;;;;;15.00;92.10;;;;;;6126306;23;19951;-73
2022/09/26 19:48:19;;;;;;;;;;;15.00;92.10;;;;;;6126545;23;19901;-73
2022/09/26 19:50:47;;;;;;;;;;;15.00;92.20;;;;;;6101011;23;19912;-71
2022/09/26 19:53:17;;;;;;;;;;;15.00;92.30;;;;;;6100426;23;19928;-71
2022/09/26 19:55:49;;;;;;;;;;;15.00;92.40;;;;;;6126432;23;19907;-71
2022/09/26 19:58:19;;;;;;;;;;;15.00;92.40;;;;;;6101458;23;20248;-71
2022/09/26 20:00:49;;;;;;;;;;;15.00;92.40;;;;;;6126298;23;19905;-71
2022/09/26 20:03:17;;;;;;;;;;;15.10;92.40;;;;;;6126276;23;20299;-71
2022/09/26 20:05:44;;;;;;;;;;;15.10;92.50;;;;;;6126026;23;19912;-71
2022/09/26 20:08:13;;;;;;;;;;;15.10;92.50;;;;;;6100359;23;19907;-71
2022/09/26 20:10:40;;;;;;;;;;;15.10;92.40;;;;;;6126202;23;19908;-71
2022/09/26 20:13:07;;;;;;;;;;;15.10;92.50;;;;;;6125887;23;19901;-71
2022/09/26 20:15:33;;;;;;;;;;;15.10;92.60;;;;;;6100174;23;20186;-71
2022/09/26 20:18:00;;;;;;;;;;;15.20;92.40;;;;;;6125928;23;19916;-71
2022/09/26 20:20:26;;;;;;;;;;;15.10;92.50;;;;;;6126208;23;19927;-71
2022/09/26 20:22:53;;;;;;;;;;;15.10;92.50;;;;;;6100631;23;19991;-73
2022/09/26 20:25:24;;;;;;;;;;;15.10;92.50;;;;;;6100661;23;19928;-71
2022/09/26 20:27:50;;;;;;;;;;;15.10;92.50;;;;;;6076292;23;20028;-73
2022/09/26 20:33:02;;;;;;;;;;;15.10;92.50;;;;;;6126213;23;19951;-71
2022/09/26 20:35:30;;;;;;;;;;;15.10;92.70;;;;;;6125751;23;20268;-71
2022/09/26 20:38:01;;;;;;;;;;;15.10;92.60;;;;;;6100102;23;19913;-71
2022/09/26 20:40:28;;;;;;;;;;;15.10;92.70;;;;;;6099547;23;19947;-73
2022/09/26 20:42:56;;;;;;;;;;;15.10;92.70;;;;;;6100126;23;19940;-73
2022/09/26 20:45:38;;;;;;;;;;;15.20;92.90;;;;;;6099794;23;19976;-74
2022/09/26 20:48:06;;;;;;;;;;;15.20;92.80;;;;;;6101539;23;19909;-74
2022/09/26 20:50:37;;;;;;;;;;;15.20;92.80;;;;;;6101003;23;19924;-71
2022/09/26 20:53:09;;;;;;;;;;;15.20;92.70;;;;;;6126038;23;20000;-73
2022/09/26 20:55:36;;;;;;;;;;;15.30;92.90;;;;;;6100672;23;19901;-73
2022/09/26 20:58:03;;;;;;;;;;;15.30;92.90;;;;;;6125682;23;20289;-73
2022/09/26 21:00:31;;;;;;;;;;;15.30;92.80;;;;;;6125701;23;19985;-71
2022/09/26 21:02:57;;;;;;;;;;;15.30;92.80;;;;;;6100450;23;19900;-71
2022/09/26 21:05:26;;;;;;;;;;;15.30;92.50;;;;;;6125726;23;19904;-71
2022/09/26 21:07:52;;;;;;;;;;;15.30;92.30;;;;;;6100168;23;19900;-71
2022/09/26 21:10:19;;;;;;;;;;;15.30;92.20;;;;;;6125117;23;19979;-71
2022/09/26 21:12:46;;;;;;;;;;;15.30;92.20;;;;;;6125554;23;19904;-74
2022/09/26 21:15:13;;;;;;;;;;;15.20;92.30;;;;;;6125840;23;20240;-75
2022/09/26 21:17:39;;;;;;;;;;;15.30;92.30;;;;;;6125341;23;19916;-74
2022/09/26 21:20:08;;;;;;;;;;;15.30;92.20;;;;;;6099525;23;20355;-74
2022/09/26 21:22:37;;;;;;;;;;;15.30;92.30;;;;;;6099834;23;19928;-72
2022/09/26 21:25:04;;;;;;;;;;;15.30;92.20;;;;;;6125483;23;20317;-72
2022/09/26 21:27:30;;;;;;;;;;;15.30;92.10;;;;;;6125613;23;19900;-74
2022/09/26 21:29:57;;;;;;;;;;;15.30;92.00;;;;;;6125471;23;20442;-75
2022/09/26 21:32:23;;;;;;;;;;;15.30;92.20;;;;;;6125356;23;19901;-75
2022/09/26 21:34:55;;;;;;;;;;;15.30;92.00;;;;;;6125638;23;19908;-75
2022/09/26 21:37:21;;;;;;;;;;;15.30;91.80;;;;;;6125523;23;19927;-75
2022/09/26 21:39:48;;;;;;;;;;;15.30;91.90;;;;;;6125331;23;19901;-75
2022/09/26 21:42:14;;;;;;;;;;;15.40;91.90;;;;;;6125395;23;19908;-76
2022/09/26 21:44:42;;;;;;;;;;;15.40;91.70;;;;;;6099244;23;19959;-77
2022/09/26 21:47:09;;;;;;;;;;;15.40;91.60;;;;;;6099175;23;19901;-77
2022/09/26 21:49:35;;;;;;;;;;;15.40;91.50;;;;;;6099789;23;19905;-77
2022/09/26 21:52:13;;;;;;;;;;;15.40;91.50;;;;;;6125504;23;19900;-74
2022/09/26 21:54:42;;;;;;;;;;;15.40;91.30;;;;;;6125083;23;19980;-77
2022/09/26 21:57:09;;;;;;;;;;;15.50;91.30;;;;;;6098913;23;20050;-74
2022/09/26 21:59:36;;;;;;;;;;;15.50;91.20;;;;;;6099361;23;19999;-75
2022/09/26 22:02:02;;;;;;;;;;;15.50;91.20;;;;;;6099719;23;19924;-75
2022/09/26 22:04:29;;;;;;;;;;;15.50;91.10;;;;;;6125107;23;19932;-76
2022/09/26 22:06:56;;;;;;;;;;;15.60;90.70;;;;;;6099187;23;20283;-75
2022/09/26 22:09:22;;;;;;;;;;;15.60;90.70;;;;;;6124527;23;19915;-75
2022/09/26 22:11:49;;;;;;;;;;;15.60;90.60;;;;;;6125337;23;19905;-76
2022/09/26 22:14:15;;;;;;;;;;;15.60;90.60;;;;;;6125002;23;19905;-76
2022/09/26 22:16:42;;;;;;;;;;;15.70;90.50;;;;;;6124796;23;19928;-76
2022/09/26 22:19:08;;;;;;;;;;;15.70;90.50;;;;;;6125235;23;19930;-76
2022/09/26 22:21:35;;;;;;;;;;;15.70;90.50;;;;;;6123221;23;19984;-76
2022/09/26 22:24:02;;;;;;;;;;;15.70;90.40;;;;;;6124604;23;19908;-76
2022/09/26 22:26:28;;;;;;;;;;;15.70;90.20;;;;;;6124679;23;19907;-76
2022/09/26 22:28:55;;;;;;;;;;;15.80;90.50;;;;;;6099132;23;20259;-76
2022/09/26 22:31:22;;;;;;;;;;;15.70;90.30;;;;;;6125072;23;19924;-76
2022/09/26 22:33:48;;;;;;;;;;;15.70;90.60;;;;;;6124925;23;19900;-76
2022/09/26 22:36:15;;;;;;;;;;;15.70;90.80;;;;;;6124883;23;19905;-76
2022/09/26 22:38:42;;;;;;;;;;;15.70;91.10;;;;;;6126820;23;19901;-77
2022/09/26 22:41:09;;;;;;;;;;;15.70;91.50;;;;;;6126952;23;19995;-76
2022/09/26 22:43:36;;;;;;;;;;;15.70;92.00;;;;;;6127164;23;19924;-76
2022/09/26 22:46:06;;;;;;;;;;;15.70;92.50;;;;;;6126832;23;19905;-76
2022/09/26 22:48:33;;;;;;;;;;;15.70;92.70;;;;;;6126913;23;19912;-76
2022/09/26 22:51:00;;;;;;;;;;;15.70;93.00;;;;;;6126860;23;19901;-76
2022/09/26 22:53:27;;;;;;;;;;;15.70;93.10;;;;;;6127145;23;19912;-76
2022/09/26 22:55:54;;;;;;;;;;;15.70;93.30;;;;;;6126836;23;20000;-76
2022/09/26 22:58:24;;;;;;;;;;;15.70;93.40;;;;;;6126566;23;19912;-76
2022/09/26 23:00:51;;;;;;;;;;;15.70;93.20;;;;;;6100322;23;19905;-76
2022/09/26 23:03:17;;;;;;;;;;;15.70;93.50;;;;;;6126111;23;19901;-76
2022/09/26 23:05:46;;;;;;;;;;;15.70;93.70;;;;;;6126378;23;20301;-76
